WEATHER DATA

YESTERDAY
Time Temp. Dewp. Hum. Wind dir Wind speed Wind gust Bar. 1h Prec. 24h Prec.
00:06 19.4 13.3 68 90 0.3 0.8 1014.4 0.0000 0.0000
00:16 19.3 13.3 68 90 0.3 0.8 1014.7 0.0000 0.0000
00:26 19.1 13.1 68 90 0.3 0.8 1014.8 0.0000 0.0000
00:36 19 13 68 90 0.3 0.8 1014.9 0.0000 0.0000
00:46 18.8 12.8 68 90 0.3 0.8 1015.2 0.0000 0.0000
00:56 18.7 12.7 68 90 0.3 0.8 1015.4 0.0000 0.0000
01:06 18.6 12.6 68 90 0.3 0.8 1015.4 0.0000 0.0000
01:16 18.6 12.6 68 90 0.3 0.8 1015.5 0.0000 0.0000
01:26 18.6 12.6 68 90 0.3 0.8 1015.4 0.0000 0.0000
01:36 18.6 12.6 68 90 0.3 0.8 1015.8 0.0000 0.0000
01:47 18.5 12.5 68 90 0.3 0.8 1015.6 0.0000 0.0000
01:56 18.5 12.5 68 90 0.3 0.8 1015.5 0.0000 0.0000
02:06 18.4 12.4 68 90 0.3 0.8 1015.5 0.0000 0.0000
02:16 18.3 12.3 68 90 0.3 0.8 1015.6 0.0000 0.0000
02:27 18.1 12.1 68 90 0.3 0.8 1015.4 0.0000 0.0000
02:37 17.9 11.9 68 90 0.3 0.8 1015.5 0.0000 0.0000
02:46 17.7 11.7 68 90 0.3 0.8 1015.8 0.0000 0.0000
02:57 17.6 11.6 68 90 0.3 0.8 1015.9 0.0000 0.0000
03:07 17.5 11.5 68 90 0.3 0.8 1015.9 0.0000 0.0000
03:17 17.5 11.5 68 90 0.3 0.8 1016 0.0000 0.0000
03:27 17.4 11.4 68 90 0.3 0.8 1016 0.0000 0.0000
03:38 17.3 11.3 68 90 0.3 0.8 1015.9 0.0000 0.0000
03:48 17.2 11.2 68 90 0.3 0.8 1016 0.0000 0.0000
03:57 17.1 11.2 68 90 0.3 0.8 1016 0.0000 0.0000
04:08 16.9 11 68 90 0.3 0.8 1015.9 0.0000 0.0000
04:18 16.8 10.9 68 90 0.3 0.8 1016 0.0000 0.0000
04:28 16.6 10.7 68 90 0.3 0.8 1016.2 0.0000 0.0000
04:38 16.5 10.6 68 90 0.3 0.8 1016.5 0.0000 0.0000
04:49 16.4 10.5 68 90 0.3 0.8 1016.5 0.0000 0.0000
04:59 16.3 10.4 68 90 0.3 0.8 1016.6 0.0000 0.0000
05:08 16.3 10.4 68 90 0.3 0.8 1016.6 0.0000 0.0000
05:18 16.2 10.3 68 90 0.3 0.8 1016.8 0.0000 0.0000
05:29 16.1 10.2 68 90 0.3 0.8 1016.9 0.0000 0.0000
05:39 16.1 10.2 68 90 0.3 0.8 1017 0.0000 0.0000
05:49 16 10.1 68 90 0.3 0.8 1017.1 0.0000 0.0000
05:59 15.9 10 68 90 0.3 0.8 1017.3 0.0000 0.0000
06:10 15.9 10 68 90 0.3 0.8 1017.3 0.0000 0.0000
06:19 15.8 9.9 68 90 0.3 0.8 1017.4 0.0000 0.0000
06:29 15.8 9.9 68 90 0.3 0.8 1017.4 0.0000 0.0000
06:40 15.8 9.9 68 90 0.3 0.8 1017.5 0.0000 0.0000
06:50 15.7 9.8 68 90 0.3 0.8 1017.4 0.0000 0.0000
07:00 15.6 9.7 68 90 0.3 0.8 1017.4 0.0000 0.0000
07:10 15.5 9.4 67 90 0.3 0.8 1017.4 0.0000 0.0000
07:21 15.5 9.4 67 90 0.3 0.8 1017.3 0.0000 0.0000
07:30 15.5 9.4 67 90 0.3 0.8 1017.5 0.0000 0.0000
07:40 15.5 9.4 67 90 0.3 0.8 1017.6 0.0000 0.0000
07:51 15.4 9.3 67 90 0.3 0.8 1017.6 0.0000 0.0000
08:01 15.4 9.3 67 90 0.3 0.8 1017.7 0.0000 0.0000
08:11 15.5 9.4 67 90 0.3 0.8 1018 0.0000 0.0000
08:21 15.5 9.4 67 90 0.3 0.8 1018 0.0000 0.0000
08:31 15.5 9.4 67 90 0.3 0.8 1018.1 0.0000 0.0000
08:41 15.5 9.4 67 90 0.3 0.8 1018.1 0.0000 0.0000
08:51 15.5 9.4 67 90 0.3 0.8 1018.1 0.0000 0.0000
09:01 15.6 9.5 67 90 0.3 0.8 1018.1 0.0000 0.0000
09:12 15.6 9.5 67 90 0.3 0.8 1018 0.0000 0.0000
09:22 15.6 9.5 67 90 0.3 0.8 1017.9 0.0000 0.0000
09:31 15.7 9.6 67 90 0.3 0.8 1018.1 0.0000 0.0000
09:42 15.7 9.6 67 90 0.3 0.8 1018.2 0.0000 0.0000
09:52 15.9 9.8 67 90 0.3 0.8 1018.3 0.0000 0.0000
10:02 16.1 10 67 90 0.3 0.8 1018 0.0000 0.0000
10:12 16.5 10.4 67 90 0.3 0.8 1017.9 0.0000 0.0000
10:23 16.9 10.7 67 90 0.3 0.8 1018.1 0.0000 0.0000
10:33 17.2 11 67 90 0.3 0.8 1018 0.0000 0.0000
10:42 17.5 11.3 67 90 0.3 0.8 1018.4 0.0000 0.0000
10:53 17.6 11.4 67 90 0.3 0.8 1018.8 0.0000 0.0000
11:03 17.5 11.3 67 90 0.3 0.8 1018.3 0.0000 0.0000
11:13 17.6 11.4 67 90 0.3 0.8 1018.4 0.0000 0.0000
11:23 17.6 11.4 67 90 0.3 0.8 1018.3 0.0000 0.0000
11:34 17.9 11.7 67 90 0.3 0.8 1018.1 0.0000 0.0000
11:44 18 11.8 67 90 0.3 0.8 1018.2 0.0000 0.0000
11:53 18.2 12 67 90 0.3 0.8 1018.3 0.0000 0.0000
12:03 18.6 12.4 67 90 0.3 0.8 1018.4 0.0000 0.0000
12:14 18.7 12.5 67 90 0.3 0.8 1018.3 0.0000 0.0000
12:24 18.9 12.6 67 90 0.3 0.8 1018.4 0.0000 0.0000
12:34 19.2 12.9 67 90 0.3 0.8 1018.4 0.0000 0.0000
12:44 19.6 13.3 67 90 0.3 0.8 1018.3 0.0000 0.0000
12:54 20.2 13.9 67 90 0.3 0.8 1018 0.0000 0.0000
13:04 20.9 14.5 67 90 0.3 0.8 1017.9 0.0000 0.0000
13:14 21.6 15.2 67 90 0.3 0.8 1017.7 0.0000 0.0000
13:25 22 15.4 66 90 0.3 0.8 1017.6 0.0000 0.0000
13:34 22.3 15.6 66 90 0.3 0.8 1017.6 0.0000 0.0000
13:44 22.5 15.8 66 90 0.3 0.8 1017.5 0.0000 0.0000
13:55 22.8 15.9 65 90 0.3 0.8 1017.7 0.0000 0.0000
14:05 22.6 15.7 65 90 0.3 0.8 1017.7 0.0000 0.0000
14:14 22.2 15.1 64 90 0.3 0.8 1017.7 0.0000 0.0000
14:24 22 14.9 64 90 0.3 0.8 1017.7 0.0000 0.0000
14:35 21.5 14.4 64 90 0.3 0.8 1017.6 0.0000 0.0000
14:45 21.1 14 64 90 0.3 0.8 1017.6 0.0000 0.0000
14:54 20.6 13.6 64 90 0.3 0.8 1017.6 0.0000 0.0000
15:05 20.2 13.2 64 90 0.3 0.8 1017.7 0.0000 0.0000
15:15 19.8 12.8 64 90 0.3 0.8 1017.9 0.0000 0.0000
15:25 19.5 12.5 64 90 0.3 0.8 1017.8 0.0000 0.0000
15:35 19.2 12.2 64 90 0.3 0.8 1017.9 0.0000 0.0000
15:46 19.1 12.4 65 90 0.3 0.8 1017.8 0.0000 0.0000
15:55 19.3 12.6 65 90 0.3 0.8 1017.7 0.0000 0.0000
16:05 19.8 13 65 90 0.3 0.8 1017.8 0.0000 0.0000
16:16 20.1 13.3 65 90 0.3 0.8 1017.8 0.0000 0.0000
16:26 20.6 13.8 65 90 0.3 0.8 1017.8 0.0000 0.0000
16:36 21 14.2 65 90 0.3 0.8 1017.9 0.0000 0.0000
16:46 20.8 13.7 64 90 0.3 0.8 1017.9 0.0000 0.0000
16:57 20.7 13.7 64 90 0.3 0.8 1017.9 0.0000 0.0000
17:06 20.5 13.5 64 90 0.3 0.8 1018.1 0.0000 0.0000
17:16 20.1 13.1 64 90 0.3 0.8 1018.1 0.0000 0.0000
17:26 19.8 12.8 64 90 0.3 0.8 1018 0.0000 0.0000
17:37 19.6 12.6 64 90 0.3 0.8 1018.1 0.0000 0.0000
17:47 19 12 64 90 0.3 0.8 1018.8 0.0000 0.0000
17:57 18.1 11.2 64 90 0.3 0.8 1019.1 0.0000 0.0000
18:07 17.4 10.8 65 90 0.3 0.8 1019 0.0000 0.0000
18:17 17 10.4 65 90 0.3 0.8 1019 0.0000 0.0000
18:27 16.8 10.4 66 90 0.3 0.8 1019 0.0000 0.0000
18:37 16.4 10 66 90 0.3 0.8 1018.9 0.0000 0.0000
18:48 16 9.7 66 90 0.3 0.8 1018.9 0.0000 0.0000
18:58 15.8 9.5 66 90 0.3 0.8 1018.8 0.0000 0.0000
19:07 16.2 10.1 67 90 0.3 0.8 1018.8 0.0000 0.0000
19:18 16.8 10.6 67 90 0.3 0.8 1018.9 0.0000 0.0000
19:28 16.2 9.8 66 90 0.3 0.8 1018.8 0.0000 0.0000
19:38 15.7 9.4 66 90 0.3 0.8 1018.8 0.0000 0.0000
19:48 15.2 9.1 67 90 0.3 0.8 1018.9 0.0000 0.0000
19:59 14.9 8.8 67 90 0.3 0.8 1019.2 0.0000 0.0000
20:09 14.6 8.5 67 90 0.3 0.8 1019.1 0.0000 0.0000
20:18 14.2 8.2 67 90 0.3 0.8 1019 0.0000 0.0000
20:28 13.8 7.8 67 90 0.3 0.8 1019.1 0.0000 0.0000
20:39 13.4 7.4 67 90 0.3 0.8 1019.2 0.0000 0.0000
20:49 13.1 7.3 68 90 0.3 0.8 1019.3 0.0000 0.0000
20:59 12.8 7 68 90 0.3 0.8 1019.4 0.0000 0.0000
21:09 12.6 6.9 68 90 0.3 0.8 1019.7 0.0000 0.0000
21:19 12.4 6.7 68 90 0.3 0.8 1019.7 0.0000 0.0000
21:29 12.2 6.5 68 90 0.3 0.8 1019.8 0.0000 0.0000
21:39 12.2 6.7 69 90 0.3 0.8 1019.9 0.0000 0.0000
21:50 12.2 6.7 69 90 0.3 0.8 1019.9 0.0000 0.0000
22:00 12.1 6.6 69 90 0.3 0.8 1019.9 0.0000 0.0000
22:09 12 6.5 69 90 0.3 0.8 1020.1 0.0000 0.0000
22:20 11.9 6.4 69 90 0.3 0.8 1020 0.0000 0.0000
22:30 11.9 6.4 69 90 0.3 0.8 1020.1 0.0000 0.0000
22:40 12 6.5 69 90 0.3 0.8 1020.2 0.0000 0.0000
22:50 12.1 6.6 69 90 0.3 0.8 1020.2 0.0000 0.0000
23:00 12.3 6.8 69 90 0.3 0.8 1020.3 0.0000 0.0000
23:10 12.4 6.9 69 90 0.3 0.8 1020.3 0.0000 0.0000
23:20 12.5 7 69 90 0.3 0.8 1020.3 0.0000 0.0000
23:30 12.5 7 69 90 0.3 0.8 1020.3 0.0000 0.0000
23:41 12.5 7 69 90 0.3 0.8 1020.2 0.0000 0.0000
23:51 12.3 6.8 69 90 0.3 0.8 1020.3 0.0000 0.0000

DAY STATISTIC

2018-06-22
TEMPERATURE
AVERAGE
17.0
HIGH
22.8
13:55
LOW
11.9
22:20
PRESSURE
AVERAGE
1017.8
HIGH
1020.3
23:00
LOW
1014.4
00:06
DEWPOINT
AVERAGE
10.9
HIGH
15.9
13:55
LOW
6.4
22:20
HUMIDITY
AVERAGE
67
HIGH
69
21:39
LOW
64
14:14
WIND SPEED
AVERAGE
0.3
HIGH
0.3
00:06
WIND GUST
AVERAGE
0.8
HIGH
0.8
00:06
WIND DIRECTION
PREVAILING
E
100%
N
0.0
NE
0.0
E
100.0
SE
0.0
S
0.0
SW
0.0
W
0.0
NW
0.0
PRECIPITATION
RAIN HOUR
0.0
RAIN DAY
0.0
TEMPERATURE (°C)
LOW
11.9
HIGH
22.8
AVERAGE
17.0
PRESSURE (hpa)
LOW
1014.4
HIGH
1020.3
AVERAGE
1017.8
DEVICE